sensor_id;sensor_type;location;lat;lon;timestamp;P1;durP1;ratioP1;P2;durP2;ratioP2
6378;SDS011;3222;48.858;10.128;2023-04-01T00:00:52;1.07;;;1.00;;
6378;SDS011;3222;48.858;10.128;2023-04-01T00:03:19;1.50;;;1.13;;
6378;SDS011;3222;48.858;10.128;2023-04-01T00:05:45;4.33;;;1.27;;
6378;SDS011;3222;48.858;10.128;2023-04-01T00:08:11;2.50;;;1.40;;
6378;SDS011;3222;48.858;10.128;2023-04-01T00:10:37;1.40;;;1.20;;
6378;SDS011;3222;48.858;10.128;2023-04-01T00:13:03;2.23;;;1.37;;
6378;SDS011;3222;48.858;10.128;2023-04-01T00:15:29;1.27;;;1.17;;
6378;SDS011;3222;48.858;10.128;2023-04-01T00:17:55;6.27;;;1.30;;
6378;SDS011;3222;48.858;10.128;2023-04-01T00:20:21;1.23;;;1.03;;
6378;SDS011;3222;48.858;10.128;2023-04-01T00:22:46;2.57;;;1.10;;
6378;SDS011;3222;48.858;10.128;2023-04-01T00:25:12;1.03;;;0.93;;
6378;SDS011;3222;48.858;10.128;2023-04-01T00:27:38;1.00;;;1.00;;
6378;SDS011;3222;48.858;10.128;2023-04-01T00:30:04;2.93;;;1.00;;
6378;SDS011;3222;48.858;10.128;2023-04-01T00:32:31;1.20;;;0.90;;
6378;SDS011;3222;48.858;10.128;2023-04-01T00:34:57;1.40;;;1.10;;
6378;SDS011;3222;48.858;10.128;2023-04-01T00:37:24;1.50;;;1.40;;
6378;SDS011;3222;48.858;10.128;2023-04-01T00:39:51;2.93;;;2.10;;
6378;SDS011;3222;48.858;10.128;2023-04-01T00:42:17;3.20;;;2.00;;
6378;SDS011;3222;48.858;10.128;2023-04-01T00:44:45;2.10;;;1.70;;
6378;SDS011;3222;48.858;10.128;2023-04-01T00:47:18;1.60;;;1.50;;
6378;SDS011;3222;48.858;10.128;2023-04-01T00:49:45;3.70;;;1.70;;
6378;SDS011;3222;48.858;10.128;2023-04-01T00:52:15;2.07;;;1.33;;
6378;SDS011;3222;48.858;10.128;2023-04-01T00:54:52;2.40;;;1.27;;
6378;SDS011;3222;48.858;10.128;2023-04-01T00:57:27;1.10;;;1.00;;
6378;SDS011;3222;48.858;10.128;2023-04-01T00:59:56;2.77;;;1.20;;
6378;SDS011;3222;48.858;10.128;2023-04-01T01:02:23;3.00;;;1.10;;
6378;SDS011;3222;48.858;10.128;2023-04-01T01:04:49;1.33;;;0.90;;
6378;SDS011;3222;48.858;10.128;2023-04-01T01:15:45;3.80;;;1.50;;
6378;SDS011;3222;48.858;10.128;2023-04-01T01:27:11;1.90;;;1.30;;
6378;SDS011;3222;48.858;10.128;2023-04-01T01:37:49;1.43;;;0.90;;
6378;SDS011;3222;48.858;10.128;2023-04-01T01:40:20;2.07;;;1.07;;
6378;SDS011;3222;48.858;10.128;2023-04-01T01:42:50;3.27;;;1.07;;
6378;SDS011;3222;48.858;10.128;2023-04-01T01:45:20;4.73;;;1.10;;
6378;SDS011;3222;48.858;10.128;2023-04-01T01:47:49;1.40;;;0.90;;
6378;SDS011;3222;48.858;10.128;2023-04-01T01:50:16;2.43;;;1.07;;
6378;SDS011;3222;48.858;10.128;2023-04-01T01:52:43;2.43;;;1.13;;
6378;SDS011;3222;48.858;10.128;2023-04-01T01:58:13;1.07;;;0.97;;
6378;SDS011;3222;48.858;10.128;2023-04-01T02:00:51;3.23;;;0.90;;
6378;SDS011;3222;48.858;10.128;2023-04-01T02:03:20;2.10;;;0.90;;
6378;SDS011;3222;48.858;10.128;2023-04-01T02:05:50;1.40;;;1.17;;
6378;SDS011;3222;48.858;10.128;2023-04-01T02:08:21;1.80;;;1.00;;
6378;SDS011;3222;48.858;10.128;2023-04-01T02:10:55;2.17;;;1.30;;
6378;SDS011;3222;48.858;10.128;2023-04-01T02:13:34;4.30;;;1.50;;
6378;SDS011;3222;48.858;10.128;2023-04-01T02:16:31;4.27;;;1.47;;
6378;SDS011;3222;48.858;10.128;2023-04-01T02:19:04;2.10;;;1.53;;
6378;SDS011;3222;48.858;10.128;2023-04-01T02:21:32;3.30;;;1.60;;
6378;SDS011;3222;48.858;10.128;2023-04-01T02:24:00;1.90;;;1.13;;
6378;SDS011;3222;48.858;10.128;2023-04-01T02:26:27;1.47;;;1.37;;
6378;SDS011;3222;48.858;10.128;2023-04-01T02:28:54;2.10;;;1.20;;
6378;SDS011;3222;48.858;10.128;2023-04-01T02:31:21;2.43;;;1.80;;
6378;SDS011;3222;48.858;10.128;2023-04-01T02:33:48;2.93;;;1.70;;
6378;SDS011;3222;48.858;10.128;2023-04-01T02:36:15;2.87;;;1.30;;
6378;SDS011;3222;48.858;10.128;2023-04-01T02:38:42;2.57;;;1.40;;
6378;SDS011;3222;48.858;10.128;2023-04-01T02:41:09;2.57;;;1.40;;
6378;SDS011;3222;48.858;10.128;2023-04-01T02:43:35;1.40;;;1.30;;
6378;SDS011;3222;48.858;10.128;2023-04-01T02:46:01;2.70;;;1.90;;
6378;SDS011;3222;48.858;10.128;2023-04-01T02:48:27;3.87;;;1.70;;
6378;SDS011;3222;48.858;10.128;2023-04-01T02:50:53;3.00;;;1.43;;
6378;SDS011;3222;48.858;10.128;2023-04-01T02:53:19;3.63;;;1.80;;
6378;SDS011;3222;48.858;10.128;2023-04-01T02:55:45;4.00;;;2.07;;
6378;SDS011;3222;48.858;10.128;2023-04-01T02:58:11;2.30;;;1.50;;
6378;SDS011;3222;48.858;10.128;2023-04-01T03:00:36;3.80;;;2.13;;
6378;SDS011;3222;48.858;10.128;2023-04-01T03:03:03;1.97;;;1.30;;
6378;SDS011;3222;48.858;10.128;2023-04-01T03:05:28;1.10;;;1.10;;
6378;SDS011;3222;48.858;10.128;2023-04-01T03:07:54;1.97;;;1.50;;
6378;SDS011;3222;48.858;10.128;2023-04-01T03:10:20;3.90;;;1.10;;
6378;SDS011;3222;48.858;10.128;2023-04-01T03:12:46;2.20;;;1.20;;
6378;SDS011;3222;48.858;10.128;2023-04-01T03:15:12;1.87;;;1.40;;
6378;SDS011;3222;48.858;10.128;2023-04-01T03:17:40;1.73;;;1.30;;
6378;SDS011;3222;48.858;10.128;2023-04-01T03:20:06;1.60;;;1.00;;
6378;SDS011;3222;48.858;10.128;2023-04-01T03:22:34;0.90;;;0.90;;
6378;SDS011;3222;48.858;10.128;2023-04-01T03:25:00;1.33;;;1.23;;
6378;SDS011;3222;48.858;10.128;2023-04-01T03:27:28;1.00;;;0.93;;
6378;SDS011;3222;48.858;10.128;2023-04-01T03:29:53;1.53;;;1.10;;
6378;SDS011;3222;48.858;10.128;2023-04-01T03:32:19;1.00;;;1.00;;
6378;SDS011;3222;48.858;10.128;2023-04-01T03:34:45;1.13;;;1.00;;
6378;SDS011;3222;48.858;10.128;2023-04-01T03:37:11;1.00;;;1.00;;
6378;SDS011;3222;48.858;10.128;2023-04-01T03:39:37;1.23;;;0.80;;
6378;SDS011;3222;48.858;10.128;2023-04-01T03:42:02;0.90;;;0.90;;
6378;SDS011;3222;48.858;10.128;2023-04-01T03:44:32;1.00;;;1.00;;
6378;SDS011;3222;48.858;10.128;2023-04-01T03:46:59;1.60;;;0.97;;
6378;SDS011;3222;48.858;10.128;2023-04-01T03:49:25;2.23;;;0.77;;
6378;SDS011;3222;48.858;10.128;2023-04-01T03:51:51;0.90;;;0.90;;
6378;SDS011;3222;48.858;10.128;2023-04-01T03:54:16;2.23;;;1.00;;
6378;SDS011;3222;48.858;10.128;2023-04-01T03:56:44;0.90;;;0.90;;
6378;SDS011;3222;48.858;10.128;2023-04-01T03:59:10;0.87;;;0.87;;
6378;SDS011;3222;48.858;10.128;2023-04-01T04:01:36;2.87;;;2.00;;
6378;SDS011;3222;48.858;10.128;2023-04-01T04:04:02;2.23;;;1.23;;
6378;SDS011;3222;48.858;10.128;2023-04-01T04:06:28;1.20;;;1.10;;
6378;SDS011;3222;48.858;10.128;2023-04-01T04:08:54;1.67;;;1.10;;
6378;SDS011;3222;48.858;10.128;2023-04-01T04:11:21;0.90;;;0.90;;
6378;SDS011;3222;48.858;10.128;2023-04-01T04:13:49;1.17;;;1.00;;
6378;SDS011;3222;48.858;10.128;2023-04-01T04:16:16;2.00;;;1.00;;
6378;SDS011;3222;48.858;10.128;2023-04-01T04:18:51;3.10;;;1.03;;
6378;SDS011;3222;48.858;10.128;2023-04-01T04:21:17;5.67;;;2.90;;
6378;SDS011;3222;48.858;10.128;2023-04-01T04:23:43;3.83;;;2.80;;
6378;SDS011;3222;48.858;10.128;2023-04-01T04:26:11;2.63;;;2.40;;
6378;SDS011;3222;48.858;10.128;2023-04-01T04:28:39;2.23;;;1.30;;
6378;SDS011;3222;48.858;10.128;2023-04-01T04:31:05;2.80;;;1.47;;
6378;SDS011;3222;48.858;10.128;2023-04-01T04:33:33;1.20;;;1.10;;
6378;SDS011;3222;48.858;10.128;2023-04-01T04:35:59;1.53;;;1.17;;
6378;SDS011;3222;48.858;10.128;2023-04-01T04:38:25;3.53;;;1.93;;
6378;SDS011;3222;48.858;10.128;2023-04-01T04:40:52;3.57;;;2.07;;
6378;SDS011;3222;48.858;10.128;2023-04-01T04:43:19;2.07;;;1.87;;
6378;SDS011;3222;48.858;10.128;2023-04-01T04:45:45;1.77;;;1.63;;
6378;SDS011;3222;48.858;10.128;2023-04-01T04:48:11;3.27;;;2.07;;
6378;SDS011;3222;48.858;10.128;2023-04-01T04:50:43;1.63;;;1.53;;
6378;SDS011;3222;48.858;10.128;2023-04-01T04:53:10;2.47;;;1.80;;
6378;SDS011;3222;48.858;10.128;2023-04-01T04:55:37;1.33;;;1.20;;
6378;SDS011;3222;48.858;10.128;2023-04-01T04:58:19;1.13;;;1.10;;
6378;SDS011;3222;48.858;10.128;2023-04-01T05:00:45;1.30;;;1.20;;
6378;SDS011;3222;48.858;10.128;2023-04-01T05:03:18;1.13;;;1.03;;
6378;SDS011;3222;48.858;10.128;2023-04-01T05:05:51;1.93;;;1.30;;
6378;SDS011;3222;48.858;10.128;2023-04-01T05:08:17;1.30;;;1.00;;
6378;SDS011;3222;48.858;10.128;2023-04-01T05:10:43;0.97;;;0.97;;
6378;SDS011;3222;48.858;10.128;2023-04-01T05:13:10;1.20;;;1.10;;
6378;SDS011;3222;48.858;10.128;2023-04-01T05:15:36;4.37;;;1.70;;
6378;SDS011;3222;48.858;10.128;2023-04-01T05:18:02;2.67;;;1.60;;
6378;SDS011;3222;48.858;10.128;2023-04-01T05:20:28;1.70;;;1.40;;
6378;SDS011;3222;48.858;10.128;2023-04-01T05:22:58;2.20;;;1.60;;
6378;SDS011;3222;48.858;10.128;2023-04-01T05:25:24;2.23;;;1.30;;
6378;SDS011;3222;48.858;10.128;2023-04-01T05:27:50;1.30;;;1.20;;
6378;SDS011;3222;48.858;10.128;2023-04-01T05:30:17;1.13;;;1.13;;
6378;SDS011;3222;48.858;10.128;2023-04-01T05:32:56;2.43;;;1.07;;
6378;SDS011;3222;48.858;10.128;2023-04-01T05:35:23;1.60;;;1.00;;
6378;SDS011;3222;48.858;10.128;2023-04-01T05:37:49;2.57;;;1.17;;
6378;SDS011;3222;48.858;10.128;2023-04-01T05:40:15;1.27;;;1.17;;
6378;SDS011;3222;48.858;10.128;2023-04-01T05:42:41;2.47;;;1.10;;
6378;SDS011;3222;48.858;10.128;2023-04-01T05:45:06;1.13;;;1.03;;
6378;SDS011;3222;48.858;10.128;2023-04-01T05:47:52;1.30;;;1.20;;
6378;SDS011;3222;48.858;10.128;2023-04-01T05:50:18;1.33;;;1.00;;
6378;SDS011;3222;48.858;10.128;2023-04-01T05:52:44;1.83;;;1.10;;
6378;SDS011;3222;48.858;10.128;2023-04-01T05:55:10;2.23;;;1.07;;
6378;SDS011;3222;48.858;10.128;2023-04-01T05:57:36;1.10;;;1.10;;
6378;SDS011;3222;48.858;10.128;2023-04-01T06:00:03;3.70;;;1.20;;
6378;SDS011;3222;48.858;10.128;2023-04-01T06:02:37;1.77;;;1.00;;
6378;SDS011;3222;48.858;10.128;2023-04-01T06:07:42;2.17;;;1.00;;
6378;SDS011;3222;48.858;10.128;2023-04-01T06:10:14;1.00;;;1.00;;
6378;SDS011;3222;48.858;10.128;2023-04-01T06:18:38;1.23;;;1.13;;
6378;SDS011;3222;48.858;10.128;2023-04-01T06:21:09;1.97;;;0.97;;
6378;SDS011;3222;48.858;10.128;2023-04-01T06:26:46;1.80;;;1.40;;
6378;SDS011;3222;48.858;10.128;2023-04-01T06:29:32;1.83;;;1.10;;
6378;SDS011;3222;48.858;10.128;2023-04-01T06:32:39;1.17;;;0.90;;
6378;SDS011;3222;48.858;10.128;2023-04-01T06:46:20;1.80;;;1.17;;
6378;SDS011;3222;48.858;10.128;2023-04-01T06:55:46;0.90;;;0.90;;
6378;SDS011;3222;48.858;10.128;2023-04-01T06:58:27;1.20;;;1.10;;
6378;SDS011;3222;48.858;10.128;2023-04-01T07:01:03;1.70;;;1.10;;
6378;SDS011;3222;48.858;10.128;2023-04-01T07:03:33;1.20;;;1.10;;
6378;SDS011;3222;48.858;10.128;2023-04-01T07:06:12;1.43;;;1.10;;
6378;SDS011;3222;48.858;10.128;2023-04-01T07:08:51;1.20;;;1.10;;
6378;SDS011;3222;48.858;10.128;2023-04-01T07:11:30;1.40;;;1.30;;
6378;SDS011;3222;48.858;10.128;2023-04-01T07:14:37;1.93;;;1.10;;
6378;SDS011;3222;48.858;10.128;2023-04-01T07:17:40;1.30;;;1.20;;
6378;SDS011;3222;48.858;10.128;2023-04-01T07:22:34;1.63;;;1.03;;
6378;SDS011;3222;48.858;10.128;2023-04-01T07:25:43;1.40;;;1.30;;
6378;SDS011;3222;48.858;10.128;2023-04-01T07:28:40;2.77;;;1.37;;
6378;SDS011;3222;48.858;10.128;2023-04-01T07:36:57;1.40;;;1.30;;
6378;SDS011;3222;48.858;10.128;2023-04-01T07:51:03;2.90;;;1.63;;
6378;SDS011;3222;48.858;10.128;2023-04-01T07:56:15;1.50;;;1.40;;
6378;SDS011;3222;48.858;10.128;2023-04-01T08:07:44;1.40;;;1.27;;
6378;SDS011;3222;48.858;10.128;2023-04-01T08:10:50;1.10;;;1.10;;
6378;SDS011;3222;48.858;10.128;2023-04-01T08:19:45;3.07;;;1.50;;
6378;SDS011;3222;48.858;10.128;2023-04-01T08:22:26;1.93;;;1.40;;
6378;SDS011;3222;48.858;10.128;2023-04-01T08:24:58;1.40;;;1.30;;
6378;SDS011;3222;48.858;10.128;2023-04-01T08:27:31;1.13;;;0.93;;
6378;SDS011;3222;48.858;10.128;2023-04-01T08:30:17;1.40;;;1.30;;
6378;SDS011;3222;48.858;10.128;2023-04-01T08:33:00;1.40;;;1.30;;
6378;SDS011;3222;48.858;10.128;2023-04-01T08:38:19;4.13;;;1.80;;
6378;SDS011;3222;48.858;10.128;2023-04-01T08:41:01;1.70;;;1.60;;
6378;SDS011;3222;48.858;10.128;2023-04-01T08:46:51;1.33;;;1.30;;
6378;SDS011;3222;48.858;10.128;2023-04-01T08:55:14;1.60;;;1.50;;
6378;SDS011;3222;48.858;10.128;2023-04-01T09:00:53;2.17;;;1.57;;
6378;SDS011;3222;48.858;10.128;2023-04-01T09:03:36;2.00;;;1.50;;
6378;SDS011;3222;48.858;10.128;2023-04-01T09:08:39;1.50;;;1.40;;
6378;SDS011;3222;48.858;10.128;2023-04-01T09:31:06;1.17;;;1.07;;
6378;SDS011;3222;48.858;10.128;2023-04-01T09:39:46;1.40;;;1.00;;
6378;SDS011;3222;48.858;10.128;2023-04-01T09:45:27;0.90;;;0.90;;
6378;SDS011;3222;48.858;10.128;2023-04-01T09:48:15;1.00;;;1.00;;
6378;SDS011;3222;48.858;10.128;2023-04-01T09:51:15;1.60;;;1.50;;
6378;SDS011;3222;48.858;10.128;2023-04-01T09:53:56;1.40;;;1.27;;
6378;SDS011;3222;48.858;10.128;2023-04-01T10:05:54;1.90;;;1.70;;
6378;SDS011;3222;48.858;10.128;2023-04-01T10:14:56;2.83;;;2.10;;
6378;SDS011;3222;48.858;10.128;2023-04-01T10:20:42;5.83;;;3.07;;
6378;SDS011;3222;48.858;10.128;2023-04-01T10:37:50;1.57;;;1.47;;
6378;SDS011;3222;48.858;10.128;2023-04-01T10:50:25;1.87;;;1.00;;
6378;SDS011;3222;48.858;10.128;2023-04-01T11:14:34;1.33;;;1.00;;
6378;SDS011;3222;48.858;10.128;2023-04-01T11:26:04;1.10;;;1.00;;
6378;SDS011;3222;48.858;10.128;2023-04-01T11:29:02;1.00;;;1.00;;
6378;SDS011;3222;48.858;10.128;2023-04-01T11:40:47;0.93;;;0.93;;
6378;SDS011;3222;48.858;10.128;2023-04-01T11:43:36;1.63;;;1.50;;
6378;SDS011;3222;48.858;10.128;2023-04-01T11:46:42;3.27;;;2.70;;
6378;SDS011;3222;48.858;10.128;2023-04-01T11:52:35;1.60;;;1.50;;
6378;SDS011;3222;48.858;10.128;2023-04-01T11:58:18;1.67;;;1.57;;
6378;SDS011;3222;48.858;10.128;2023-04-01T12:00:57;1.10;;;1.10;;
6378;SDS011;3222;48.858;10.128;2023-04-01T12:15:11;1.17;;;1.10;;
6378;SDS011;3222;48.858;10.128;2023-04-01T12:34:41;2.13;;;1.00;;
6378;SDS011;3222;48.858;10.128;2023-04-01T12:37:18;1.07;;;1.07;;
6378;SDS011;3222;48.858;10.128;2023-04-01T12:45:35;1.40;;;1.30;;
6378;SDS011;3222;48.858;10.128;2023-04-01T13:02:11;1.20;;;1.07;;
6378;SDS011;3222;48.858;10.128;2023-04-01T13:10:26;1.57;;;1.47;;
6378;SDS011;3222;48.858;10.128;2023-04-01T13:15:45;1.20;;;1.20;;
6378;SDS011;3222;48.858;10.128;2023-04-01T13:29:25;0.80;;;0.80;;
6378;SDS011;3222;48.858;10.128;2023-04-01T13:51:01;1.47;;;1.37;;
6378;SDS011;3222;48.858;10.128;2023-04-01T13:58:55;2.60;;;1.20;;
6378;SDS011;3222;48.858;10.128;2023-04-01T14:01:31;1.83;;;1.73;;
6378;SDS011;3222;48.858;10.128;2023-04-01T14:09:57;1.90;;;1.80;;
6378;SDS011;3222;48.858;10.128;2023-04-01T14:12:42;1.57;;;1.50;;
6378;SDS011;3222;48.858;10.128;2023-04-01T14:15:25;1.10;;;1.10;;
6378;SDS011;3222;48.858;10.128;2023-04-01T14:23:58;1.83;;;1.43;;
6378;SDS011;3222;48.858;10.128;2023-04-01T14:38:24;0.93;;;0.93;;
6378;SDS011;3222;48.858;10.128;2023-04-01T14:40:55;1.07;;;0.97;;
6378;SDS011;3222;48.858;10.128;2023-04-01T14:54:04;1.07;;;1.07;;
6378;SDS011;3222;48.858;10.128;2023-04-01T14:56:35;1.70;;;1.60;;
6378;SDS011;3222;48.858;10.128;2023-04-01T14:59:07;1.73;;;1.63;;
6378;SDS011;3222;48.858;10.128;2023-04-01T15:02:00;2.00;;;1.77;;
6378;SDS011;3222;48.858;10.128;2023-04-01T15:04:48;2.87;;;1.87;;
6378;SDS011;3222;48.858;10.128;2023-04-01T15:13:13;2.27;;;1.90;;
6378;SDS011;3222;48.858;10.128;2023-04-01T15:23:34;2.70;;;2.50;;
6378;SDS011;3222;48.858;10.128;2023-04-01T15:32:02;5.30;;;4.03;;
6378;SDS011;3222;48.858;10.128;2023-04-01T15:37:32;15.57;;;9.87;;
6378;SDS011;3222;48.858;10.128;2023-04-01T15:40:31;12.87;;;8.07;;
6378;SDS011;3222;48.858;10.128;2023-04-01T15:54:37;4.87;;;4.00;;
6378;SDS011;3222;48.858;10.128;2023-04-01T16:00:27;4.50;;;3.97;;
6378;SDS011;3222;48.858;10.128;2023-04-01T16:14:21;3.07;;;2.77;;
6378;SDS011;3222;48.858;10.128;2023-04-01T16:22:09;3.10;;;2.80;;
6378;SDS011;3222;48.858;10.128;2023-04-01T16:27:43;3.37;;;3.07;;
6378;SDS011;3222;48.858;10.128;2023-04-01T16:35:59;2.70;;;2.30;;
6378;SDS011;3222;48.858;10.128;2023-04-01T16:43:56;3.83;;;3.40;;
6378;SDS011;3222;48.858;10.128;2023-04-01T16:46:38;3.60;;;2.73;;
6378;SDS011;3222;48.858;10.128;2023-04-01T16:49:15;3.90;;;2.63;;
6378;SDS011;3222;48.858;10.128;2023-04-01T16:54:35;1.80;;;1.60;;
6378;SDS011;3222;48.858;10.128;2023-04-01T16:57:04;3.33;;;2.20;;
6378;SDS011;3222;48.858;10.128;2023-04-01T17:02:27;3.27;;;2.90;;
6378;SDS011;3222;48.858;10.128;2023-04-01T17:07:34;2.50;;;2.30;;
6378;SDS011;3222;48.858;10.128;2023-04-01T17:29:56;4.80;;;3.23;;
6378;SDS011;3222;48.858;10.128;2023-04-01T17:35:57;5.23;;;3.63;;
6378;SDS011;3222;48.858;10.128;2023-04-01T17:38:29;6.43;;;4.00;;
6378;SDS011;3222;48.858;10.128;2023-04-01T17:43:51;6.07;;;3.53;;
6378;SDS011;3222;48.858;10.128;2023-04-01T17:52:06;4.27;;;3.10;;
6378;SDS011;3222;48.858;10.128;2023-04-01T18:06:31;4.90;;;2.40;;
6378;SDS011;3222;48.858;10.128;2023-04-01T18:14:45;4.57;;;2.60;;
6378;SDS011;3222;48.858;10.128;2023-04-01T18:17:25;3.80;;;2.33;;
6378;SDS011;3222;48.858;10.128;2023-04-01T18:25:19;3.80;;;1.90;;
6378;SDS011;3222;48.858;10.128;2023-04-01T18:30:51;4.17;;;2.27;;
6378;SDS011;3222;48.858;10.128;2023-04-01T18:33:30;2.13;;;1.87;;
6378;SDS011;3222;48.858;10.128;2023-04-01T18:36:15;5.63;;;2.00;;
6378;SDS011;3222;48.858;10.128;2023-04-01T18:39:07;2.73;;;2.30;;
6378;SDS011;3222;48.858;10.128;2023-04-01T18:44:47;1.93;;;1.80;;
6378;SDS011;3222;48.858;10.128;2023-04-01T18:50:14;3.10;;;1.70;;
6378;SDS011;3222;48.858;10.128;2023-04-01T18:52:44;2.20;;;1.63;;
6378;SDS011;3222;48.858;10.128;2023-04-01T18:55:24;5.00;;;3.07;;
6378;SDS011;3222;48.858;10.128;2023-04-01T18:57:55;2.30;;;1.90;;
6378;SDS011;3222;48.858;10.128;2023-04-01T19:00:37;2.53;;;1.77;;
6378;SDS011;3222;48.858;10.128;2023-04-01T19:05:47;2.10;;;2.00;;
6378;SDS011;3222;48.858;10.128;2023-04-01T19:19:24;1.43;;;1.33;;
6378;SDS011;3222;48.858;10.128;2023-04-01T19:27:40;2.20;;;1.53;;
6378;SDS011;3222;48.858;10.128;2023-04-01T19:36:16;1.70;;;1.50;;
6378;SDS011;3222;48.858;10.128;2023-04-01T19:39:34;2.67;;;2.10;;
6378;SDS011;3222;48.858;10.128;2023-04-01T19:45:05;8.80;;;2.57;;
6378;SDS011;3222;48.858;10.128;2023-04-01T19:52:46;5.07;;;1.80;;
6378;SDS011;3222;48.858;10.128;2023-04-01T19:58:26;3.93;;;2.40;;
6378;SDS011;3222;48.858;10.128;2023-04-01T20:00:59;5.23;;;2.63;;
6378;SDS011;3222;48.858;10.128;2023-04-01T20:03:43;3.23;;;2.63;;
6378;SDS011;3222;48.858;10.128;2023-04-01T20:06:14;2.73;;;2.50;;
6378;SDS011;3222;48.858;10.128;2023-04-01T20:17:15;2.47;;;2.20;;
6378;SDS011;3222;48.858;10.128;2023-04-01T20:25:12;4.93;;;2.97;;
6378;SDS011;3222;48.858;10.128;2023-04-01T20:27:44;3.50;;;2.80;;
6378;SDS011;3222;48.858;10.128;2023-04-01T20:41:49;4.47;;;2.93;;
6378;SDS011;3222;48.858;10.128;2023-04-01T20:50:24;6.37;;;3.47;;
6378;SDS011;3222;48.858;10.128;2023-04-01T21:03:49;5.00;;;2.83;;
6378;SDS011;3222;48.858;10.128;2023-04-01T21:29:18;4.47;;;2.40;;
6378;SDS011;3222;48.858;10.128;2023-04-01T21:31:59;5.97;;;2.80;;
6378;SDS011;3222;48.858;10.128;2023-04-01T21:37:22;6.00;;;2.97;;
6378;SDS011;3222;48.858;10.128;2023-04-01T21:40:18;7.87;;;2.90;;
6378;SDS011;3222;48.858;10.128;2023-04-01T21:42:59;6.83;;;2.93;;
6378;SDS011;3222;48.858;10.128;2023-04-01T22:10:57;4.23;;;2.57;;
6378;SDS011;3222;48.858;10.128;2023-04-01T22:13:37;5.93;;;2.47;;
6378;SDS011;3222;48.858;10.128;2023-04-01T22:16:14;3.77;;;2.40;;
6378;SDS011;3222;48.858;10.128;2023-04-01T22:22:04;6.80;;;2.77;;
6378;SDS011;3222;48.858;10.128;2023-04-01T22:30:41;3.70;;;2.13;;
6378;SDS011;3222;48.858;10.128;2023-04-01T22:43:54;8.37;;;2.80;;
6378;SDS011;3222;48.858;10.128;2023-04-01T22:49:20;2.70;;;1.97;;
6378;SDS011;3222;48.858;10.128;2023-04-01T22:51:57;4.60;;;2.00;;
6378;SDS011;3222;48.858;10.128;2023-04-01T22:54:41;4.87;;;2.10;;
6378;SDS011;3222;48.858;10.128;2023-04-01T22:59:44;2.20;;;2.00;;
6378;SDS011;3222;48.858;10.128;2023-04-01T23:02:21;2.40;;;1.77;;
6378;SDS011;3222;48.858;10.128;2023-04-01T23:04:54;2.57;;;1.80;;
6378;SDS011;3222;48.858;10.128;2023-04-01T23:07:42;2.90;;;2.13;;
6378;SDS011;3222;48.858;10.128;2023-04-01T23:10:39;1.80;;;1.70;;
6378;SDS011;3222;48.858;10.128;2023-04-01T23:13:16;2.20;;;1.90;;
6378;SDS011;3222;48.858;10.128;2023-04-01T23:15:48;3.10;;;1.73;;
6378;SDS011;3222;48.858;10.128;2023-04-01T23:18:19;1.83;;;1.70;;
6378;SDS011;3222;48.858;10.128;2023-04-01T23:23:45;1.70;;;1.60;;
6378;SDS011;3222;48.858;10.128;2023-04-01T23:26:25;1.60;;;1.50;;
6378;SDS011;3222;48.858;10.128;2023-04-01T23:29:03;1.70;;;1.50;;
6378;SDS011;3222;48.858;10.128;2023-04-01T23:31:32;2.23;;;1.60;;
6378;SDS011;3222;48.858;10.128;2023-04-01T23:34:01;1.57;;;1.47;;
6378;SDS011;3222;48.858;10.128;2023-04-01T23:36:46;1.30;;;1.30;;
6378;SDS011;3222;48.858;10.128;2023-04-01T23:39:24;1.53;;;1.23;;
6378;SDS011;3222;48.858;10.128;2023-04-01T23:42:03;1.43;;;1.33;;
6378;SDS011;3222;48.858;10.128;2023-04-01T23:44:45;1.40;;;1.30;;
6378;SDS011;3222;48.858;10.128;2023-04-01T23:47:14;2.07;;;1.40;;
6378;SDS011;3222;48.858;10.128;2023-04-01T23:49:48;1.70;;;1.60;;
6378;SDS011;3222;48.858;10.128;2023-04-01T23:52:22;1.50;;;1.40;;
6378;SDS011;3222;48.858;10.128;2023-04-01T23:54:55;1.50;;;1.20;;
6378;SDS011;3222;48.858;10.128;2023-04-01T23:57:33;1.23;;;1.17;;
